sensor_id;sensor_type;location;lat;lon;timestamp;temperature;humidity
11142;DHT22;5625;50.122;19.864;2023-04-03T00:01:20;3.40;99.90
11142;DHT22;5625;50.122;19.864;2023-04-03T00:03:48;3.40;99.90
11142;DHT22;5625;50.122;19.864;2023-04-03T00:06:17;3.40;99.90
11142;DHT22;5625;50.122;19.864;2023-04-03T00:08:45;3.40;99.90
11142;DHT22;5625;50.122;19.864;2023-04-03T00:11:13;3.40;99.90
11142;DHT22;5625;50.122;19.864;2023-04-03T00:13:42;3.40;99.90
11142;DHT22;5625;50.122;19.864;2023-04-03T00:16:11;3.40;99.90
11142;DHT22;5625;50.122;19.864;2023-04-03T00:18:40;3.30;99.90
11142;DHT22;5625;50.122;19.864;2023-04-03T00:21:10;3.30;99.90
11142;DHT22;5625;50.122;19.864;2023-04-03T00:23:39;3.30;99.90
11142;DHT22;5625;50.122;19.864;2023-04-03T00:26:07;3.30;99.90
11142;DHT22;5625;50.122;19.864;2023-04-03T00:28:36;3.30;99.90
11142;DHT22;5625;50.122;19.864;2023-04-03T00:31:04;3.30;99.90
11142;DHT22;5625;50.122;19.864;2023-04-03T00:33:33;3.30;99.90
11142;DHT22;5625;50.122;19.864;2023-04-03T00:36:07;3.20;99.90
11142;DHT22;5625;50.122;19.864;2023-04-03T00:38:36;3.10;99.90
11142;DHT22;5625;50.122;19.864;2023-04-03T00:41:04;3.10;99.90
11142;DHT22;5625;50.122;19.864;2023-04-03T00:43:32;3.10;99.90
11142;DHT22;5625;50.122;19.864;2023-04-03T00:46:00;3.00;99.90
11142;DHT22;5625;50.122;19.864;2023-04-03T00:48:31;3.00;99.90
11142;DHT22;5625;50.122;19.864;2023-04-03T00:51:00;3.00;99.90
11142;DHT22;5625;50.122;19.864;2023-04-03T00:53:33;2.90;99.90
11142;DHT22;5625;50.122;19.864;2023-04-03T00:56:02;3.00;99.90
11142;DHT22;5625;50.122;19.864;2023-04-03T00:58:37;2.90;99.90
11142;DHT22;5625;50.122;19.864;2023-04-03T01:01:10;2.90;99.90
11142;DHT22;5625;50.122;19.864;2023-04-03T01:03:40;2.90;99.90
11142;DHT22;5625;50.122;19.864;2023-04-03T01:06:08;2.80;99.90
11142;DHT22;5625;50.122;19.864;2023-04-03T01:08:38;2.80;99.90
11142;DHT22;5625;50.122;19.864;2023-04-03T01:11:06;2.80;99.90
11142;DHT22;5625;50.122;19.864;2023-04-03T01:13:34;2.80;99.90
11142;DHT22;5625;50.122;19.864;2023-04-03T01:16:04;2.80;99.90
11142;DHT22;5625;50.122;19.864;2023-04-03T01:18:33;2.70;99.90
11142;DHT22;5625;50.122;19.864;2023-04-03T01:21:30;2.70;99.90
11142;DHT22;5625;50.122;19.864;2023-04-03T01:24:25;2.70;99.90
11142;DHT22;5625;50.122;19.864;2023-04-03T01:26:55;2.70;99.90
11142;DHT22;5625;50.122;19.864;2023-04-03T01:29:23;2.70;99.90
11142;DHT22;5625;50.122;19.864;2023-04-03T01:31:54;2.70;99.90
11142;DHT22;5625;50.122;19.864;2023-04-03T01:34:23;2.60;99.90
11142;DHT22;5625;50.122;19.864;2023-04-03T01:36:51;2.60;99.90
11142;DHT22;5625;50.122;19.864;2023-04-03T01:39:20;2.60;99.90
11142;DHT22;5625;50.122;19.864;2023-04-03T01:41:48;2.60;99.90
11142;DHT22;5625;50.122;19.864;2023-04-03T01:44:16;2.60;99.90
11142;DHT22;5625;50.122;19.864;2023-04-03T01:46:44;2.60;99.90
11142;DHT22;5625;50.122;19.864;2023-04-03T01:49:14;2.60;99.90
11142;DHT22;5625;50.122;19.864;2023-04-03T01:51:42;2.60;99.90
11142;DHT22;5625;50.122;19.864;2023-04-03T01:54:10;2.60;99.90
11142;DHT22;5625;50.122;19.864;2023-04-03T01:56:38;2.60;99.90
11142;DHT22;5625;50.122;19.864;2023-04-03T01:59:06;2.60;99.90
11142;DHT22;5625;50.122;19.864;2023-04-03T02:01:34;2.60;99.90
11142;DHT22;5625;50.122;19.864;2023-04-03T02:04:03;2.60;99.90
11142;DHT22;5625;50.122;19.864;2023-04-03T02:06:32;2.60;99.90
11142;DHT22;5625;50.122;19.864;2023-04-03T02:09:00;2.50;99.90
11142;DHT22;5625;50.122;19.864;2023-04-03T02:11:28;2.60;99.90
11142;DHT22;5625;50.122;19.864;2023-04-03T02:13:58;2.60;99.90
11142;DHT22;5625;50.122;19.864;2023-04-03T02:16:26;2.50;99.90
11142;DHT22;5625;50.122;19.864;2023-04-03T02:18:55;2.50;99.90
11142;DHT22;5625;50.122;19.864;2023-04-03T02:21:23;2.50;99.90
11142;DHT22;5625;50.122;19.864;2023-04-03T02:23:52;2.50;99.90
11142;DHT22;5625;50.122;19.864;2023-04-03T02:26:20;2.50;99.90
11142;DHT22;5625;50.122;19.864;2023-04-03T02:28:48;2.50;99.90
11142;DHT22;5625;50.122;19.864;2023-04-03T02:31:17;2.50;99.90
11142;DHT22;5625;50.122;19.864;2023-04-03T02:33:45;2.50;99.90
11142;DHT22;5625;50.122;19.864;2023-04-03T02:36:13;2.50;99.90
11142;DHT22;5625;50.122;19.864;2023-04-03T02:38:41;2.40;99.90
11142;DHT22;5625;50.122;19.864;2023-04-03T02:41:12;2.40;99.90
11142;DHT22;5625;50.122;19.864;2023-04-03T02:43:40;2.50;99.90
11142;DHT22;5625;50.122;19.864;2023-04-03T02:46:08;2.50;99.90
11142;DHT22;5625;50.122;19.864;2023-04-03T02:48:36;2.40;99.90
11142;DHT22;5625;50.122;19.864;2023-04-03T02:51:05;2.40;99.90
11142;DHT22;5625;50.122;19.864;2023-04-03T02:53:33;2.30;99.90
11142;DHT22;5625;50.122;19.864;2023-04-03T02:56:01;2.30;99.90
11142;DHT22;5625;50.122;19.864;2023-04-03T02:58:30;2.30;99.90
11142;DHT22;5625;50.122;19.864;2023-04-03T03:00:58;2.30;99.90
11142;DHT22;5625;50.122;19.864;2023-04-03T03:03:26;2.30;99.90
11142;DHT22;5625;50.122;19.864;2023-04-03T03:06:01;2.40;99.90
11142;DHT22;5625;50.122;19.864;2023-04-03T03:08:30;2.30;99.90
11142;DHT22;5625;50.122;19.864;2023-04-03T03:10:58;2.30;99.90
11142;DHT22;5625;50.122;19.864;2023-04-03T03:13:26;2.30;99.90
11142;DHT22;5625;50.122;19.864;2023-04-03T03:15:56;2.40;99.90
11142;DHT22;5625;50.122;19.864;2023-04-03T03:18:24;2.40;99.90
11142;DHT22;5625;50.122;19.864;2023-04-03T03:20:52;2.40;99.90
11142;DHT22;5625;50.122;19.864;2023-04-03T03:23:24;2.30;99.90
11142;DHT22;5625;50.122;19.864;2023-04-03T03:25:55;2.30;99.90
11142;DHT22;5625;50.122;19.864;2023-04-03T03:28:25;2.30;99.90
11142;DHT22;5625;50.122;19.864;2023-04-03T03:30:53;2.20;99.90
11142;DHT22;5625;50.122;19.864;2023-04-03T03:33:23;2.20;99.90
11142;DHT22;5625;50.122;19.864;2023-04-03T03:35:52;2.20;99.90
11142;DHT22;5625;50.122;19.864;2023-04-03T03:38:20;2.20;99.90
11142;DHT22;5625;50.122;19.864;2023-04-03T03:40:49;2.20;99.90
11142;DHT22;5625;50.122;19.864;2023-04-03T03:43:18;2.20;99.90
11142;DHT22;5625;50.122;19.864;2023-04-03T03:45:50;2.30;99.90
11142;DHT22;5625;50.122;19.864;2023-04-03T03:48:18;2.20;99.90
11142;DHT22;5625;50.122;19.864;2023-04-03T03:50:49;2.20;99.90
11142;DHT22;5625;50.122;19.864;2023-04-03T03:53:17;2.20;99.90
11142;DHT22;5625;50.122;19.864;2023-04-03T03:55:45;2.20;99.90
11142;DHT22;5625;50.122;19.864;2023-04-03T03:58:14;2.20;99.90
11142;DHT22;5625;50.122;19.864;2023-04-03T04:00:41;2.20;99.90
11142;DHT22;5625;50.122;19.864;2023-04-03T04:03:10;2.20;99.90
11142;DHT22;5625;50.122;19.864;2023-04-03T04:05:38;2.20;99.90
11142;DHT22;5625;50.122;19.864;2023-04-03T04:08:07;2.10;99.90
11142;DHT22;5625;50.122;19.864;2023-04-03T04:10:35;2.10;99.90
11142;DHT22;5625;50.122;19.864;2023-04-03T04:13:05;2.10;99.90
11142;DHT22;5625;50.122;19.864;2023-04-03T04:15:33;2.10;99.90
11142;DHT22;5625;50.122;19.864;2023-04-03T04:18:01;2.10;99.90
11142;DHT22;5625;50.122;19.864;2023-04-03T04:20:30;2.00;99.90
11142;DHT22;5625;50.122;19.864;2023-04-03T04:22:58;2.00;99.90
11142;DHT22;5625;50.122;19.864;2023-04-03T04:25:27;2.00;99.90
11142;DHT22;5625;50.122;19.864;2023-04-03T04:27:56;2.00;99.90
11142;DHT22;5625;50.122;19.864;2023-04-03T04:30:24;2.00;99.90
11142;DHT22;5625;50.122;19.864;2023-04-03T04:32:52;2.00;99.90
11142;DHT22;5625;50.122;19.864;2023-04-03T04:35:20;2.00;99.90
11142;DHT22;5625;50.122;19.864;2023-04-03T04:37:49;2.00;99.90
11142;DHT22;5625;50.122;19.864;2023-04-03T04:40:17;2.00;99.90
11142;DHT22;5625;50.122;19.864;2023-04-03T04:42:47;2.00;99.90
11142;DHT22;5625;50.122;19.864;2023-04-03T04:45:15;2.10;99.90
11142;DHT22;5625;50.122;19.864;2023-04-03T04:47:45;2.10;99.90
11142;DHT22;5625;50.122;19.864;2023-04-03T04:50:13;2.10;99.90
11142;DHT22;5625;50.122;19.864;2023-04-03T04:52:41;2.10;99.90
11142;DHT22;5625;50.122;19.864;2023-04-03T04:55:09;2.10;99.90
11142;DHT22;5625;50.122;19.864;2023-04-03T04:57:37;2.20;99.90
11142;DHT22;5625;50.122;19.864;2023-04-03T05:00:09;2.20;99.90
11142;DHT22;5625;50.122;19.864;2023-04-03T05:02:37;2.30;99.90
11142;DHT22;5625;50.122;19.864;2023-04-03T05:05:06;2.20;99.90
11142;DHT22;5625;50.122;19.864;2023-04-03T05:07:34;2.20;99.90
11142;DHT22;5625;50.122;19.864;2023-04-03T05:10:03;2.30;99.90
11142;DHT22;5625;50.122;19.864;2023-04-03T05:12:32;2.20;99.90
11142;DHT22;5625;50.122;19.864;2023-04-03T05:15:00;2.20;99.90
11142;DHT22;5625;50.122;19.864;2023-04-03T05:17:30;2.30;99.90
11142;DHT22;5625;50.122;19.864;2023-04-03T05:20:01;2.30;99.90
11142;DHT22;5625;50.122;19.864;2023-04-03T05:22:29;2.40;99.90
11142;DHT22;5625;50.122;19.864;2023-04-03T05:24:57;2.40;99.90
11142;DHT22;5625;50.122;19.864;2023-04-03T05:27:25;2.30;99.90
11142;DHT22;5625;50.122;19.864;2023-04-03T05:29:55;2.30;99.90
11142;DHT22;5625;50.122;19.864;2023-04-03T05:32:24;2.30;99.90
11142;DHT22;5625;50.122;19.864;2023-04-03T05:34:54;2.30;99.90
11142;DHT22;5625;50.122;19.864;2023-04-03T05:37:25;2.20;99.90
11142;DHT22;5625;50.122;19.864;2023-04-03T05:39:53;2.20;99.90
11142;DHT22;5625;50.122;19.864;2023-04-03T05:42:22;2.20;99.90
11142;DHT22;5625;50.122;19.864;2023-04-03T05:44:50;2.10;99.90
11142;DHT22;5625;50.122;19.864;2023-04-03T05:47:19;2.10;99.90
11142;DHT22;5625;50.122;19.864;2023-04-03T05:49:50;2.00;97.60
11142;DHT22;5625;50.122;19.864;2023-04-03T05:52:22;2.00;99.70
11142;DHT22;5625;50.122;19.864;2023-04-03T05:54:50;2.00;99.90
11142;DHT22;5625;50.122;19.864;2023-04-03T05:57:19;2.00;99.90
11142;DHT22;5625;50.122;19.864;2023-04-03T05:59:47;2.00;99.90
11142;DHT22;5625;50.122;19.864;2023-04-03T06:02:18;1.90;99.90
11142;DHT22;5625;50.122;19.864;2023-04-03T06:04:46;1.90;99.90
11142;DHT22;5625;50.122;19.864;2023-04-03T06:07:16;1.90;96.50
11142;DHT22;5625;50.122;19.864;2023-04-03T06:09:45;1.90;99.00
11142;DHT22;5625;50.122;19.864;2023-04-03T06:12:13;1.90;94.40
11142;DHT22;5625;50.122;19.864;2023-04-03T06:14:41;1.90;99.90
11142;DHT22;5625;50.122;19.864;2023-04-03T06:17:10;1.90;95.70
11142;DHT22;5625;50.122;19.864;2023-04-03T06:19:39;1.80;88.70
11142;DHT22;5625;50.122;19.864;2023-04-03T06:22:08;1.80;78.30
11142;DHT22;5625;50.122;19.864;2023-04-03T06:24:38;1.80;91.30
11142;DHT22;5625;50.122;19.864;2023-04-03T06:27:09;1.90;68.40
11142;DHT22;5625;50.122;19.864;2023-04-03T06:29:38;1.90;55.10
11142;DHT22;5625;50.122;19.864;2023-04-03T06:32:07;1.90;45.60
11142;DHT22;5625;50.122;19.864;2023-04-03T06:34:35;1.90;30.40
11142;DHT22;5625;50.122;19.864;2023-04-03T06:37:03;1.90;26.40
11142;DHT22;5625;50.122;19.864;2023-04-03T06:39:31;1.90;35.20
11142;DHT22;5625;50.122;19.864;2023-04-03T06:42:00;2.00;23.40
11142;DHT22;5625;50.122;19.864;2023-04-03T06:44:30;2.00;41.80
11142;DHT22;5625;50.122;19.864;2023-04-03T06:47:00;2.00;34.50
11142;DHT22;5625;50.122;19.864;2023-04-03T06:49:28;2.00;23.20
11142;DHT22;5625;50.122;19.864;2023-04-03T06:51:59;2.00;24.80
11142;DHT22;5625;50.122;19.864;2023-04-03T06:54:28;2.00;33.80
11142;DHT22;5625;50.122;19.864;2023-04-03T06:56:56;2.10;33.90
11142;DHT22;5625;50.122;19.864;2023-04-03T06:59:24;2.10;51.90
11142;DHT22;5625;50.122;19.864;2023-04-03T07:01:54;2.20;49.00
11142;DHT22;5625;50.122;19.864;2023-04-03T07:04:22;2.20;37.50
11142;DHT22;5625;50.122;19.864;2023-04-03T07:06:50;2.20;10.70
11142;DHT22;5625;50.122;19.864;2023-04-03T07:09:21;2.20;1.00
11142;DHT22;5625;50.122;19.864;2023-04-03T07:11:49;2.20;11.80
11142;DHT22;5625;50.122;19.864;2023-04-03T07:14:17;2.30;21.50
11142;DHT22;5625;50.122;19.864;2023-04-03T07:16:45;2.30;16.50
11142;DHT22;5625;50.122;19.864;2023-04-03T07:19:14;2.40;18.00
11142;DHT22;5625;50.122;19.864;2023-04-03T07:21:44;2.40;7.10
11142;DHT22;5625;50.122;19.864;2023-04-03T07:24:14;2.50;5.70
11142;DHT22;5625;50.122;19.864;2023-04-03T07:26:42;2.50;1.00
11142;DHT22;5625;50.122;19.864;2023-04-03T07:29:12;2.50;1.00
11142;DHT22;5625;50.122;19.864;2023-04-03T07:31:41;2.50;1.00
11142;DHT22;5625;50.122;19.864;2023-04-03T07:34:11;2.60;1.00
11142;DHT22;5625;50.122;19.864;2023-04-03T07:36:41;2.60;1.00
11142;DHT22;5625;50.122;19.864;2023-04-03T07:39:10;2.60;1.00
11142;DHT22;5625;50.122;19.864;2023-04-03T07:41:38;2.70;1.00
11142;DHT22;5625;50.122;19.864;2023-04-03T07:44:06;2.70;1.00
11142;DHT22;5625;50.122;19.864;2023-04-03T07:46:36;2.90;1.00
11142;DHT22;5625;50.122;19.864;2023-04-03T07:49:04;3.10;1.00
11142;DHT22;5625;50.122;19.864;2023-04-03T07:51:32;3.20;1.00
11142;DHT22;5625;50.122;19.864;2023-04-03T07:54:02;3.30;1.00
11142;DHT22;5625;50.122;19.864;2023-04-03T07:56:31;3.30;1.00
11142;DHT22;5625;50.122;19.864;2023-04-03T07:59:00;3.40;1.00
11142;DHT22;5625;50.122;19.864;2023-04-03T08:01:28;3.40;1.00
11142;DHT22;5625;50.122;19.864;2023-04-03T08:03:59;3.50;1.00
11142;DHT22;5625;50.122;19.864;2023-04-03T08:06:27;3.80;1.00
11142;DHT22;5625;50.122;19.864;2023-04-03T08:09:13;3.80;99.90
11142;DHT22;5625;50.122;19.864;2023-04-03T08:11:42;3.90;99.90
11142;DHT22;5625;50.122;19.864;2023-04-03T08:14:11;3.90;99.90
11142;DHT22;5625;50.122;19.864;2023-04-03T08:16:45;4.30;99.90
11142;DHT22;5625;50.122;19.864;2023-04-03T08:19:14;4.80;99.90
11142;DHT22;5625;50.122;19.864;2023-04-03T08:21:52;5.10;99.90
11142;DHT22;5625;50.122;19.864;2023-04-03T08:24:22;5.10;99.90
11142;DHT22;5625;50.122;19.864;2023-04-03T08:26:50;5.20;80.90
11142;DHT22;5625;50.122;19.864;2023-04-03T08:29:18;5.10;73.10
11142;DHT22;5625;50.122;19.864;2023-04-03T08:31:48;5.10;99.90
11142;DHT22;5625;50.122;19.864;2023-04-03T08:34:16;5.20;99.90
11142;DHT22;5625;50.122;19.864;2023-04-03T08:36:47;5.50;99.90
11142;DHT22;5625;50.122;19.864;2023-04-03T08:39:16;5.60;99.90
11142;DHT22;5625;50.122;19.864;2023-04-03T08:41:45;5.70;1.70
11142;DHT22;5625;50.122;19.864;2023-04-03T08:44:19;5.80;99.20
11142;DHT22;5625;50.122;19.864;2023-04-03T08:50:33;5.30;1.00
11142;DHT22;5625;50.122;19.864;2023-04-03T08:53:04;5.10;99.20
11142;DHT22;5625;50.122;19.864;2023-04-03T08:55:39;5.10;77.20
11142;DHT22;5625;50.122;19.864;2023-04-03T08:58:12;5.00;99.90
11142;DHT22;5625;50.122;19.864;2023-04-03T09:00:44;5.00;99.90
11142;DHT22;5625;50.122;19.864;2023-04-03T09:03:15;4.90;99.90
11142;DHT22;5625;50.122;19.864;2023-04-03T09:05:48;4.90;99.90
11142;DHT22;5625;50.122;19.864;2023-04-03T09:08:26;4.80;99.90
11142;DHT22;5625;50.122;19.864;2023-04-03T09:11:05;4.70;99.90
11142;DHT22;5625;50.122;19.864;2023-04-03T09:13:44;4.60;99.90
11142;DHT22;5625;50.122;19.864;2023-04-03T09:16:25;4.60;99.90
11142;DHT22;5625;50.122;19.864;2023-04-03T09:19:02;4.60;99.90
11142;DHT22;5625;50.122;19.864;2023-04-03T09:21:38;4.60;99.90
11142;DHT22;5625;50.122;19.864;2023-04-03T09:24:11;4.60;99.90
11142;DHT22;5625;50.122;19.864;2023-04-03T09:26:44;4.60;99.90
11142;DHT22;5625;50.122;19.864;2023-04-03T09:29:18;4.60;99.90
11142;DHT22;5625;50.122;19.864;2023-04-03T09:31:49;4.60;99.90
11142;DHT22;5625;50.122;19.864;2023-04-03T09:34:22;4.60;99.90
11142;DHT22;5625;50.122;19.864;2023-04-03T09:36:52;4.60;99.90
11142;DHT22;5625;50.122;19.864;2023-04-03T09:39:22;4.60;99.90
11142;DHT22;5625;50.122;19.864;2023-04-03T09:41:59;4.70;99.90
11142;DHT22;5625;50.122;19.864;2023-04-03T09:44:31;4.90;99.90
11142;DHT22;5625;50.122;19.864;2023-04-03T09:47:02;4.90;99.90
11142;DHT22;5625;50.122;19.864;2023-04-03T09:49:45;4.70;99.90
11142;DHT22;5625;50.122;19.864;2023-04-03T09:52:20;4.60;99.90
11142;DHT22;5625;50.122;19.864;2023-04-03T09:54:50;4.60;99.90
11142;DHT22;5625;50.122;19.864;2023-04-03T09:57:20;4.50;99.90
11142;DHT22;5625;50.122;19.864;2023-04-03T09:59:57;4.50;99.90
11142;DHT22;5625;50.122;19.864;2023-04-03T10:02:34;4.40;99.90
11142;DHT22;5625;50.122;19.864;2023-04-03T10:05:04;4.30;99.90
11142;DHT22;5625;50.122;19.864;2023-04-03T10:07:51;4.30;99.90
11142;DHT22;5625;50.122;19.864;2023-04-03T10:10:29;4.30;99.90
11142;DHT22;5625;50.122;19.864;2023-04-03T10:13:04;4.20;99.90
11142;DHT22;5625;50.122;19.864;2023-04-03T10:15:41;4.20;99.90
11142;DHT22;5625;50.122;19.864;2023-04-03T10:18:26;4.20;99.90
11142;DHT22;5625;50.122;19.864;2023-04-03T10:21:02;4.20;99.90
11142;DHT22;5625;50.122;19.864;2023-04-03T10:23:42;4.20;99.90
11142;DHT22;5625;50.122;19.864;2023-04-03T10:26:17;4.20;99.90
11142;DHT22;5625;50.122;19.864;2023-04-03T10:28:56;4.20;99.90
11142;DHT22;5625;50.122;19.864;2023-04-03T10:31:34;4.30;99.90
11142;DHT22;5625;50.122;19.864;2023-04-03T10:34:06;4.20;99.90
11142;DHT22;5625;50.122;19.864;2023-04-03T10:36:45;4.30;99.90
11142;DHT22;5625;50.122;19.864;2023-04-03T10:39:19;4.30;99.90
11142;DHT22;5625;50.122;19.864;2023-04-03T10:41:59;4.30;99.90
11142;DHT22;5625;50.122;19.864;2023-04-03T10:45:00;4.40;99.90
11142;DHT22;5625;50.122;19.864;2023-04-03T10:47:39;4.40;99.90
11142;DHT22;5625;50.122;19.864;2023-04-03T10:50:23;4.40;99.90
11142;DHT22;5625;50.122;19.864;2023-04-03T10:52:59;4.40;99.90
11142;DHT22;5625;50.122;19.864;2023-04-03T10:55:34;4.40;99.90
11142;DHT22;5625;50.122;19.864;2023-04-03T10:58:05;4.40;99.90
11142;DHT22;5625;50.122;19.864;2023-04-03T11:00:39;4.50;99.90
11142;DHT22;5625;50.122;19.864;2023-04-03T11:03:13;4.50;99.90
11142;DHT22;5625;50.122;19.864;2023-04-03T11:05:44;4.60;99.90
11142;DHT22;5625;50.122;19.864;2023-04-03T11:08:21;4.60;99.90
11142;DHT22;5625;50.122;19.864;2023-04-03T11:10:54;4.60;99.90
11142;DHT22;5625;50.122;19.864;2023-04-03T11:13:28;4.50;99.90
11142;DHT22;5625;50.122;19.864;2023-04-03T11:15:59;4.40;99.90
11142;DHT22;5625;50.122;19.864;2023-04-03T11:18:34;4.50;99.90
11142;DHT22;5625;50.122;19.864;2023-04-03T11:21:09;4.50;99.90
11142;DHT22;5625;50.122;19.864;2023-04-03T11:23:40;4.60;99.90
11142;DHT22;5625;50.122;19.864;2023-04-03T11:26:17;4.60;99.90
11142;DHT22;5625;50.122;19.864;2023-04-03T11:28:45;4.50;99.90
11142;DHT22;5625;50.122;19.864;2023-04-03T11:31:24;4.50;99.90
11142;DHT22;5625;50.122;19.864;2023-04-03T11:34:06;4.70;99.90
11142;DHT22;5625;50.122;19.864;2023-04-03T11:36:40;4.70;99.90
11142;DHT22;5625;50.122;19.864;2023-04-03T11:39:19;4.70;99.90
11142;DHT22;5625;50.122;19.864;2023-04-03T11:41:48;4.60;99.90
11142;DHT22;5625;50.122;19.864;2023-04-03T11:44:31;4.90;99.90
11142;DHT22;5625;50.122;19.864;2023-04-03T11:47:01;4.90;99.90
11142;DHT22;5625;50.122;19.864;2023-04-03T11:49:53;5.20;55.40
11142;DHT22;5625;50.122;19.864;2023-04-03T11:52:58;5.20;1.00
11142;DHT22;5625;50.122;19.864;2023-04-03T11:55:53;5.20;1.00
11142;DHT22;5625;50.122;19.864;2023-04-03T11:58:23;5.10;1.00
11142;DHT22;5625;50.122;19.864;2023-04-03T12:01:00;5.20;99.90
11142;DHT22;5625;50.122;19.864;2023-04-03T12:07:11;5.90;99.90
11142;DHT22;5625;50.122;19.864;2023-04-03T12:10:15;6.20;1.00
11142;DHT22;5625;50.122;19.864;2023-04-03T12:12:59;6.40;1.00
11142;DHT22;5625;50.122;19.864;2023-04-03T12:15:54;6.80;1.00
11142;DHT22;5625;50.122;19.864;2023-04-03T12:18:57;6.70;99.90
11142;DHT22;5625;50.122;19.864;2023-04-03T12:22:07;6.40;99.90
11142;DHT22;5625;50.122;19.864;2023-04-03T12:24:36;6.40;78.30
11142;DHT22;5625;50.122;19.864;2023-04-03T12:27:26;6.40;99.90
11142;DHT22;5625;50.122;19.864;2023-04-03T12:30:11;6.60;1.00
11142;DHT22;5625;50.122;19.864;2023-04-03T12:32:56;6.70;99.90
11142;DHT22;5625;50.122;19.864;2023-04-03T12:35:44;6.80;1.00
11142;DHT22;5625;50.122;19.864;2023-04-03T12:41:36;7.10;97.90
11142;DHT22;5625;50.122;19.864;2023-04-03T12:44:22;7.10;99.90
11142;DHT22;5625;50.122;19.864;2023-04-03T12:46:53;7.20;93.60
11142;DHT22;5625;50.122;19.864;2023-04-03T12:49:32;7.10;99.90
11142;DHT22;5625;50.122;19.864;2023-04-03T12:52:04;7.00;99.90
11142;DHT22;5625;50.122;19.864;2023-04-03T12:54:36;6.90;10.90
11142;DHT22;5625;50.122;19.864;2023-04-03T12:57:10;6.80;99.90
11142;DHT22;5625;50.122;19.864;2023-04-03T12:59:39;6.80;1.00
11142;DHT22;5625;50.122;19.864;2023-04-03T13:02:20;6.80;1.00
11142;DHT22;5625;50.122;19.864;2023-04-03T13:04:50;6.90;99.90
11142;DHT22;5625;50.122;19.864;2023-04-03T13:07:23;6.90;99.90
11142;DHT22;5625;50.122;19.864;2023-04-03T13:10:01;6.90;99.90
11142;DHT22;5625;50.122;19.864;2023-04-03T13:12:29;7.00;1.00
11142;DHT22;5625;50.122;19.864;2023-04-03T13:15:10;7.10;1.00
11142;DHT22;5625;50.122;19.864;2023-04-03T13:17:42;7.10;1.00
11142;DHT22;5625;50.122;19.864;2023-04-03T13:20:17;7.00;51.40
11142;DHT22;5625;50.122;19.864;2023-04-03T13:22:53;7.00;97.60
11142;DHT22;5625;50.122;19.864;2023-04-03T13:25:26;7.10;99.90
11142;DHT22;5625;50.122;19.864;2023-04-03T13:27:56;7.00;1.00
11142;DHT22;5625;50.122;19.864;2023-04-03T13:30:31;6.90;99.90
11142;DHT22;5625;50.122;19.864;2023-04-03T13:33:02;6.90;1.00
11142;DHT22;5625;50.122;19.864;2023-04-03T13:35:35;6.90;99.90
11142;DHT22;5625;50.122;19.864;2023-04-03T13:38:19;7.00;99.90
11142;DHT22;5625;50.122;19.864;2023-04-03T13:40:51;7.00;99.90
11142;DHT22;5625;50.122;19.864;2023-04-03T13:43:25;6.90;99.90
11142;DHT22;5625;50.122;19.864;2023-04-03T13:46:02;6.90;99.90
11142;DHT22;5625;50.122;19.864;2023-04-03T13:48:38;6.80;99.90
11142;DHT22;5625;50.122;19.864;2023-04-03T13:51:19;6.80;1.00
11142;DHT22;5625;50.122;19.864;2023-04-03T13:53:51;6.70;99.90
11142;DHT22;5625;50.122;19.864;2023-04-03T13:56:26;6.70;1.00
11142;DHT22;5625;50.122;19.864;2023-04-03T13:58:58;6.80;1.00
11142;DHT22;5625;50.122;19.864;2023-04-03T14:01:36;6.60;1.00
11142;DHT22;5625;50.122;19.864;2023-04-03T14:04:13;6.50;1.00
11142;DHT22;5625;50.122;19.864;2023-04-03T14:06:41;6.50;1.00
11142;DHT22;5625;50.122;19.864;2023-04-03T14:09:09;6.50;1.00
11142;DHT22;5625;50.122;19.864;2023-04-03T14:11:39;6.50;1.00
11142;DHT22;5625;50.122;19.864;2023-04-03T14:14:12;6.50;1.00
11142;DHT22;5625;50.122;19.864;2023-04-03T14:16:43;6.40;99.90
11142;DHT22;5625;50.122;19.864;2023-04-03T14:19:19;6.40;99.90
11142;DHT22;5625;50.122;19.864;2023-04-03T14:21:49;6.30;95.60
11142;DHT22;5625;50.122;19.864;2023-04-03T14:24:17;6.30;99.90
11142;DHT22;5625;50.122;19.864;2023-04-03T14:26:52;6.20;65.80
11142;DHT22;5625;50.122;19.864;2023-04-03T14:29:21;6.20;99.90
11142;DHT22;5625;50.122;19.864;2023-04-03T14:31:50;6.30;1.00
11142;DHT22;5625;50.122;19.864;2023-04-03T14:34:37;6.30;1.00
11142;DHT22;5625;50.122;19.864;2023-04-03T14:37:10;6.30;20.80
11142;DHT22;5625;50.122;19.864;2023-04-03T14:39:39;6.30;38.10
11142;DHT22;5625;50.122;19.864;2023-04-03T14:42:14;6.30;99.90
11142;DHT22;5625;50.122;19.864;2023-04-03T14:44:43;6.30;99.90
11142;DHT22;5625;50.122;19.864;2023-04-03T14:47:12;6.30;99.90
11142;DHT22;5625;50.122;19.864;2023-04-03T14:49:57;6.30;99.90
11142;DHT22;5625;50.122;19.864;2023-04-03T14:52:27;6.30;99.90
11142;DHT22;5625;50.122;19.864;2023-04-03T14:54:56;6.30;33.20
11142;DHT22;5625;50.122;19.864;2023-04-03T14:57:28;6.30;1.00
11142;DHT22;5625;50.122;19.864;2023-04-03T14:59:56;6.30;1.00
11142;DHT22;5625;50.122;19.864;2023-04-03T15:02:28;6.30;1.00
11142;DHT22;5625;50.122;19.864;2023-04-03T15:05:02;6.20;1.00
11142;DHT22;5625;50.122;19.864;2023-04-03T15:07:34;6.30;81.80
11142;DHT22;5625;50.122;19.864;2023-04-03T15:10:14;6.30;1.00
11142;DHT22;5625;50.122;19.864;2023-04-03T15:12:44;6.20;99.90
11142;DHT22;5625;50.122;19.864;2023-04-03T15:15:13;6.20;99.90
11142;DHT22;5625;50.122;19.864;2023-04-03T15:17:42;6.10;1.00
11142;DHT22;5625;50.122;19.864;2023-04-03T15:20:13;6.00;1.00
11142;DHT22;5625;50.122;19.864;2023-04-03T15:22:41;6.00;1.00
11142;DHT22;5625;50.122;19.864;2023-04-03T15:25:10;6.10;1.00
11142;DHT22;5625;50.122;19.864;2023-04-03T15:27:38;6.00;59.40
11142;DHT22;5625;50.122;19.864;2023-04-03T15:30:15;5.90;17.20
11142;DHT22;5625;50.122;19.864;2023-04-03T15:32:43;5.90;49.10
11142;DHT22;5625;50.122;19.864;2023-04-03T15:35:11;5.70;1.00
11142;DHT22;5625;50.122;19.864;2023-04-03T15:37:39;5.60;99.90
11142;DHT22;5625;50.122;19.864;2023-04-03T15:40:08;5.50;99.90
11142;DHT22;5625;50.122;19.864;2023-04-03T15:42:37;5.40;99.90
11142;DHT22;5625;50.122;19.864;2023-04-03T15:45:06;5.30;77.30
11142;DHT22;5625;50.122;19.864;2023-04-03T15:47:36;5.30;99.90
11142;DHT22;5625;50.122;19.864;2023-04-03T15:50:06;5.20;99.90
11142;DHT22;5625;50.122;19.864;2023-04-03T15:52:35;5.20;99.90
11142;DHT22;5625;50.122;19.864;2023-04-03T15:55:03;5.20;99.90
11142;DHT22;5625;50.122;19.864;2023-04-03T15:57:31;5.10;99.90
11142;DHT22;5625;50.122;19.864;2023-04-03T16:00:06;5.10;99.90
11142;DHT22;5625;50.122;19.864;2023-04-03T16:02:36;5.10;99.90
11142;DHT22;5625;50.122;19.864;2023-04-03T16:05:05;5.10;1.00
11142;DHT22;5625;50.122;19.864;2023-04-03T16:07:33;5.10;61.40
11142;DHT22;5625;50.122;19.864;2023-04-03T16:10:01;5.00;99.90
11142;DHT22;5625;50.122;19.864;2023-04-03T16:12:29;4.90;99.90
11142;DHT22;5625;50.122;19.864;2023-04-03T16:14:57;4.90;99.90
11142;DHT22;5625;50.122;19.864;2023-04-03T16:17:26;4.80;99.90
11142;DHT22;5625;50.122;19.864;2023-04-03T16:19:56;4.90;99.90
11142;DHT22;5625;50.122;19.864;2023-04-03T16:22:25;4.90;99.90
11142;DHT22;5625;50.122;19.864;2023-04-03T16:24:55;4.90;99.90
11142;DHT22;5625;50.122;19.864;2023-04-03T16:27:23;4.80;99.90